sensor_id;sensor_type;location;lat;lon;timestamp;temperature;humidity
78522;SHT31;67819;51.972;5.678;2024-03-22T00:00:48;13.3;73.4
78522;SHT31;67819;51.972;5.678;2024-03-22T00:03:18;13.3;73.5
78522;SHT31;67819;51.972;5.678;2024-03-22T00:05:47;13.3;73.5
78522;SHT31;67819;51.972;5.678;2024-03-22T00:08:15;13.4;73.6
78522;SHT31;67819;51.972;5.678;2024-03-22T00:10:44;13.4;73.6
78522;SHT31;67819;51.972;5.678;2024-03-22T00:13:12;13.4;73.7
78522;SHT31;67819;51.972;5.678;2024-03-22T00:15:41;13.4;73.8
78522;SHT31;67819;51.972;5.678;2024-03-22T00:18:10;13.4;73.8
78522;SHT31;67819;51.972;5.678;2024-03-22T00:20:39;13.4;73.9
78522;SHT31;67819;51.972;5.678;2024-03-22T00:23:08;13.4;73.9
78522;SHT31;67819;51.972;5.678;2024-03-22T00:25:36;13.5;73.9
78522;SHT31;67819;51.972;5.678;2024-03-22T00:28:05;13.5;73.9
78522;SHT31;67819;51.972;5.678;2024-03-22T00:30:34;13.5;74.0
78522;SHT31;67819;51.972;5.678;2024-03-22T00:33:02;13.5;73.9
78522;SHT31;67819;51.972;5.678;2024-03-22T00:35:31;13.5;74.0
78522;SHT31;67819;51.972;5.678;2024-03-22T00:37:59;13.6;74.0
78522;SHT31;67819;51.972;5.678;2024-03-22T00:40:28;13.6;74.0
78522;SHT31;67819;51.972;5.678;2024-03-22T00:42:59;13.6;74.1
78522;SHT31;67819;51.972;5.678;2024-03-22T00:45:27;13.6;74.1
78522;SHT31;67819;51.972;5.678;2024-03-22T00:47:56;13.6;74.2
78522;SHT31;67819;51.972;5.678;2024-03-22T00:50:24;13.6;74.3
78522;SHT31;67819;51.972;5.678;2024-03-22T00:52:54;13.6;74.4
78522;SHT31;67819;51.972;5.678;2024-03-22T00:55:23;13.6;74.4
78522;SHT31;67819;51.972;5.678;2024-03-22T00:57:52;13.6;74.4
78522;SHT31;67819;51.972;5.678;2024-03-22T01:00:21;13.6;74.4
78522;SHT31;67819;51.972;5.678;2024-03-22T01:02:50;13.6;74.3
78522;SHT31;67819;51.972;5.678;2024-03-22T01:05:19;13.6;74.3
78522;SHT31;67819;51.972;5.678;2024-03-22T01:07:47;13.6;74.3
78522;SHT31;67819;51.972;5.678;2024-03-22T01:10:16;13.6;74.3
78522;SHT31;67819;51.972;5.678;2024-03-22T01:12:45;13.6;74.3
78522;SHT31;67819;51.972;5.678;2024-03-22T01:15:13;13.6;74.4
78522;SHT31;67819;51.972;5.678;2024-03-22T01:17:42;13.6;74.4
78522;SHT31;67819;51.972;5.678;2024-03-22T01:20:11;13.6;74.5
78522;SHT31;67819;51.972;5.678;2024-03-22T01:22:40;13.6;74.6
78522;SHT31;67819;51.972;5.678;2024-03-22T01:25:08;13.6;74.7
78522;SHT31;67819;51.972;5.678;2024-03-22T01:27:38;13.5;74.8
78522;SHT31;67819;51.972;5.678;2024-03-22T01:30:07;13.5;74.9
78522;SHT31;67819;51.972;5.678;2024-03-22T01:32:36;13.5;74.9
78522;SHT31;67819;51.972;5.678;2024-03-22T01:35:06;13.5;75.1
78522;SHT31;67819;51.972;5.678;2024-03-22T01:37:34;13.5;75.2
78522;SHT31;67819;51.972;5.678;2024-03-22T01:40:03;13.4;75.2
78522;SHT31;67819;51.972;5.678;2024-03-22T01:42:32;13.4;75.3
78522;SHT31;67819;51.972;5.678;2024-03-22T01:45:01;13.4;75.3
78522;SHT31;67819;51.972;5.678;2024-03-22T01:47:30;13.4;75.3
78522;SHT31;67819;51.972;5.678;2024-03-22T01:50:01;13.4;75.4
78522;SHT31;67819;51.972;5.678;2024-03-22T01:52:29;13.4;75.4
78522;SHT31;67819;51.972;5.678;2024-03-22T01:54:58;13.4;75.4
78522;SHT31;67819;51.972;5.678;2024-03-22T01:57:27;13.3;75.5
78522;SHT31;67819;51.972;5.678;2024-03-22T01:59:57;13.3;75.6
78522;SHT31;67819;51.972;5.678;2024-03-22T02:02:27;13.3;75.6
78522;SHT31;67819;51.972;5.678;2024-03-22T02:04:56;13.3;75.9
78522;SHT31;67819;51.972;5.678;2024-03-22T02:07:27;13.3;76.0
78522;SHT31;67819;51.972;5.678;2024-03-22T02:09:58;13.3;76.1
78522;SHT31;67819;51.972;5.678;2024-03-22T02:12:27;13.3;76.2
78522;SHT31;67819;51.972;5.678;2024-03-22T02:14:57;13.3;76.1
78522;SHT31;67819;51.972;5.678;2024-03-22T02:17:26;13.3;76.0
78522;SHT31;67819;51.972;5.678;2024-03-22T02:19:54;13.4;75.9
78522;SHT31;67819;51.972;5.678;2024-03-22T02:22:23;13.4;75.9
78522;SHT31;67819;51.972;5.678;2024-03-22T02:24:52;13.4;75.8
78522;SHT31;67819;51.972;5.678;2024-03-22T02:27:21;13.4;75.6
78522;SHT31;67819;51.972;5.678;2024-03-22T02:29:49;13.4;75.5
78522;SHT31;67819;51.972;5.678;2024-03-22T02:32:18;13.4;75.5
78522;SHT31;67819;51.972;5.678;2024-03-22T02:34:46;13.4;75.6
78522;SHT31;67819;51.972;5.678;2024-03-22T02:37:15;13.4;75.6
78522;SHT31;67819;51.972;5.678;2024-03-22T02:39:44;13.4;75.7
78522;SHT31;67819;51.972;5.678;2024-03-22T02:42:12;13.4;75.7
78522;SHT31;67819;51.972;5.678;2024-03-22T02:44:41;13.4;75.7
78522;SHT31;67819;51.972;5.678;2024-03-22T02:47:11;13.4;75.7
78522;SHT31;67819;51.972;5.678;2024-03-22T02:49:42;13.4;75.6
78522;SHT31;67819;51.972;5.678;2024-03-22T02:52:11;13.4;75.5
78522;SHT31;67819;51.972;5.678;2024-03-22T02:54:39;13.4;75.4
78522;SHT31;67819;51.972;5.678;2024-03-22T02:57:09;13.5;75.4
78522;SHT31;67819;51.972;5.678;2024-03-22T02:59:38;13.5;75.2
78522;SHT31;67819;51.972;5.678;2024-03-22T03:02:06;13.5;75.1
78522;SHT31;67819;51.972;5.678;2024-03-22T03:04:35;13.5;75.0
78522;SHT31;67819;51.972;5.678;2024-03-22T03:07:04;13.4;74.8
78522;SHT31;67819;51.972;5.678;2024-03-22T03:09:32;13.4;74.8
78522;SHT31;67819;51.972;5.678;2024-03-22T03:12:01;13.4;74.8
78522;SHT31;67819;51.972;5.678;2024-03-22T03:14:32;13.4;74.8
78522;SHT31;67819;51.972;5.678;2024-03-22T03:17:01;13.3;74.9
78522;SHT31;67819;51.972;5.678;2024-03-22T03:19:30;13.3;75.0
78522;SHT31;67819;51.972;5.678;2024-03-22T03:21:58;13.3;75.1
78522;SHT31;67819;51.972;5.678;2024-03-22T03:24:27;13.3;75.3
78522;SHT31;67819;51.972;5.678;2024-03-22T03:26:55;13.3;75.4
78522;SHT31;67819;51.972;5.678;2024-03-22T03:29:24;13.3;75.5
78522;SHT31;67819;51.972;5.678;2024-03-22T03:31:52;13.3;75.4
78522;SHT31;67819;51.972;5.678;2024-03-22T03:34:21;13.3;75.4
78522;SHT31;67819;51.972;5.678;2024-03-22T03:36:50;13.3;75.4
78522;SHT31;67819;51.972;5.678;2024-03-22T03:39:18;13.3;75.5
78522;SHT31;67819;51.972;5.678;2024-03-22T03:41:47;13.3;75.4
78522;SHT31;67819;51.972;5.678;2024-03-22T03:44:15;13.3;75.4
78522;SHT31;67819;51.972;5.678;2024-03-22T03:46:44;13.3;75.3
78522;SHT31;67819;51.972;5.678;2024-03-22T03:49:13;13.3;75.2
78522;SHT31;67819;51.972;5.678;2024-03-22T03:51:41;13.3;75.1
78522;SHT31;67819;51.972;5.678;2024-03-22T03:54:10;13.3;75.0
78522;SHT31;67819;51.972;5.678;2024-03-22T03:56:38;13.3;74.9
78522;SHT31;67819;51.972;5.678;2024-03-22T03:59:09;13.3;74.9
78522;SHT31;67819;51.972;5.678;2024-03-22T04:01:37;13.3;74.8
78522;SHT31;67819;51.972;5.678;2024-03-22T04:04:06;13.3;74.7
78522;SHT31;67819;51.972;5.678;2024-03-22T04:06:35;13.3;74.7
78522;SHT31;67819;51.972;5.678;2024-03-22T04:09:04;13.3;74.7
78522;SHT31;67819;51.972;5.678;2024-03-22T04:11:33;13.3;74.7
78522;SHT31;67819;51.972;5.678;2024-03-22T04:14:02;13.3;74.3
78522;SHT31;67819;51.972;5.678;2024-03-22T04:16:31;13.3;73.8
78522;SHT31;67819;51.972;5.678;2024-03-22T04:19:02;13.3;73.5
78522;SHT31;67819;51.972;5.678;2024-03-22T04:21:31;13.3;73.2
78522;SHT31;67819;51.972;5.678;2024-03-22T04:23:59;13.2;73.0
78522;SHT31;67819;51.972;5.678;2024-03-22T04:26:28;13.2;72.7
78522;SHT31;67819;51.972;5.678;2024-03-22T04:28:56;13.2;72.6
78522;SHT31;67819;51.972;5.678;2024-03-22T04:31:25;13.2;72.5
78522;SHT31;67819;51.972;5.678;2024-03-22T04:33:53;13.1;72.5
78522;SHT31;67819;51.972;5.678;2024-03-22T04:36:24;13.1;72.3
78522;SHT31;67819;51.972;5.678;2024-03-22T04:38:53;13.1;72.4
78522;SHT31;67819;51.972;5.678;2024-03-22T04:41:21;13.1;72.3
78522;SHT31;67819;51.972;5.678;2024-03-22T04:43:50;13.0;72.3
78522;SHT31;67819;51.972;5.678;2024-03-22T04:46:18;13.0;72.3
78522;SHT31;67819;51.972;5.678;2024-03-22T04:48:47;13.0;72.4
78522;SHT31;67819;51.972;5.678;2024-03-22T04:51:16;12.9;72.5
78522;SHT31;67819;51.972;5.678;2024-03-22T04:53:44;12.9;72.6
78522;SHT31;67819;51.972;5.678;2024-03-22T04:56:13;12.9;72.6
78522;SHT31;67819;51.972;5.678;2024-03-22T04:58:41;12.9;72.6
78522;SHT31;67819;51.972;5.678;2024-03-22T05:01:10;12.9;72.7
78522;SHT31;67819;51.972;5.678;2024-03-22T05:03:39;12.8;72.7
78522;SHT31;67819;51.972;5.678;2024-03-22T05:06:08;12.8;72.8
78522;SHT31;67819;51.972;5.678;2024-03-22T05:08:38;12.8;72.8
78522;SHT31;67819;51.972;5.678;2024-03-22T05:11:07;12.8;72.4
78522;SHT31;67819;51.972;5.678;2024-03-22T05:13:36;12.8;72.5
78522;SHT31;67819;51.972;5.678;2024-03-22T05:16:06;12.7;72.6
78522;SHT31;67819;51.972;5.678;2024-03-22T05:18:35;12.7;72.6
78522;SHT31;67819;51.972;5.678;2024-03-22T05:21:03;12.7;72.7
78522;SHT31;67819;51.972;5.678;2024-03-22T05:23:32;12.6;72.8
78522;SHT31;67819;51.972;5.678;2024-03-22T05:26:01;12.6;73.1
78522;SHT31;67819;51.972;5.678;2024-03-22T05:28:30;12.6;73.2
78522;SHT31;67819;51.972;5.678;2024-03-22T05:31:00;12.6;73.3
78522;SHT31;67819;51.972;5.678;2024-03-22T05:33:29;12.6;73.4
78522;SHT31;67819;51.972;5.678;2024-03-22T05:35:58;12.6;73.5
78522;SHT31;67819;51.972;5.678;2024-03-22T05:38:27;12.6;73.7
78522;SHT31;67819;51.972;5.678;2024-03-22T05:40:56;12.6;73.8
78522;SHT31;67819;51.972;5.678;2024-03-22T05:43:24;12.6;74.0
78522;SHT31;67819;51.972;5.678;2024-03-22T05:45:53;12.6;73.9
78522;SHT31;67819;51.972;5.678;2024-03-22T05:48:21;12.6;73.8
78522;SHT31;67819;51.972;5.678;2024-03-22T05:50:50;12.6;73.6
78522;SHT31;67819;51.972;5.678;2024-03-22T05:53:19;12.6;73.1
78522;SHT31;67819;51.972;5.678;2024-03-22T05:55:47;12.6;73.1
78522;SHT31;67819;51.972;5.678;2024-03-22T05:58:16;12.6;73.1
78522;SHT31;67819;51.972;5.678;2024-03-22T06:00:45;12.6;72.9
78522;SHT31;67819;51.972;5.678;2024-03-22T06:03:14;12.6;73.0
78522;SHT31;67819;51.972;5.678;2024-03-22T06:05:43;12.6;72.9
78522;SHT31;67819;51.972;5.678;2024-03-22T06:08:12;12.6;73.0
78522;SHT31;67819;51.972;5.678;2024-03-22T06:10:45;12.6;72.9
78522;SHT31;67819;51.972;5.678;2024-03-22T06:13:14;12.6;72.7
78522;SHT31;67819;51.972;5.678;2024-03-22T06:15:43;12.6;72.3
78522;SHT31;67819;51.972;5.678;2024-03-22T06:18:13;12.6;72.2
78522;SHT31;67819;51.972;5.678;2024-03-22T06:20:42;12.6;72.4
78522;SHT31;67819;51.972;5.678;2024-03-22T06:23:10;12.6;72.2
78522;SHT31;67819;51.972;5.678;2024-03-22T06:25:41;12.6;72.2
78522;SHT31;67819;51.972;5.678;2024-03-22T06:28:09;12.5;72.5
78522;SHT31;67819;51.972;5.678;2024-03-22T06:30:38;12.5;72.4
78522;SHT31;67819;51.972;5.678;2024-03-22T06:33:06;12.5;72.6
78522;SHT31;67819;51.972;5.678;2024-03-22T06:35:35;12.5;72.7
78522;SHT31;67819;51.972;5.678;2024-03-22T06:38:03;12.5;72.6
78522;SHT31;67819;51.972;5.678;2024-03-22T06:40:34;12.5;72.6
78522;SHT31;67819;51.972;5.678;2024-03-22T06:43:03;12.5;72.6
78522;SHT31;67819;51.972;5.678;2024-03-22T06:45:31;12.6;72.6
78522;SHT31;67819;51.972;5.678;2024-03-22T06:48:00;12.5;72.5
78522;SHT31;67819;51.972;5.678;2024-03-22T06:50:29;12.6;72.3
78522;SHT31;67819;51.972;5.678;2024-03-22T06:52:59;12.6;72.0
78522;SHT31;67819;51.972;5.678;2024-03-22T06:55:30;12.6;72.2
78522;SHT31;67819;51.972;5.678;2024-03-22T06:57:58;12.6;72.1
78522;SHT31;67819;51.972;5.678;2024-03-22T07:00:29;12.5;72.1
78522;SHT31;67819;51.972;5.678;2024-03-22T07:03:00;12.5;72.4
78522;SHT31;67819;51.972;5.678;2024-03-22T07:05:29;12.5;72.3
78522;SHT31;67819;51.972;5.678;2024-03-22T07:07:58;12.5;72.2
78522;SHT31;67819;51.972;5.678;2024-03-22T07:10:26;12.5;72.4
78522;SHT31;67819;51.972;5.678;2024-03-22T07:12:57;12.5;72.7
78522;SHT31;67819;51.972;5.678;2024-03-22T07:15:26;12.5;72.3
78522;SHT31;67819;51.972;5.678;2024-03-22T07:17:56;12.6;72.5
78522;SHT31;67819;51.972;5.678;2024-03-22T07:20:26;12.6;72.4
78522;SHT31;67819;51.972;5.678;2024-03-22T07:22:54;12.6;71.8
78522;SHT31;67819;51.972;5.678;2024-03-22T07:25:23;12.7;71.8
78522;SHT31;67819;51.972;5.678;2024-03-22T07:27:52;12.7;71.8
78522;SHT31;67819;51.972;5.678;2024-03-22T07:30:21;12.7;71.7
78522;SHT31;67819;51.972;5.678;2024-03-22T07:32:49;12.7;71.7
78522;SHT31;67819;51.972;5.678;2024-03-22T07:35:18;12.7;71.7
78522;SHT31;67819;51.972;5.678;2024-03-22T07:37:47;12.8;71.4
78522;SHT31;67819;51.972;5.678;2024-03-22T07:40:15;12.8;71.4
78522;SHT31;67819;51.972;5.678;2024-03-22T07:42:46;12.8;71.3
78522;SHT31;67819;51.972;5.678;2024-03-22T07:45:15;12.8;71.0
78522;SHT31;67819;51.972;5.678;2024-03-22T07:47:43;12.9;71.2
78522;SHT31;67819;51.972;5.678;2024-03-22T07:50:12;12.9;71.3
78522;SHT31;67819;51.972;5.678;2024-03-22T07:52:41;12.9;71.0
78522;SHT31;67819;51.972;5.678;2024-03-22T07:55:09;12.9;71.2
78522;SHT31;67819;51.972;5.678;2024-03-22T07:57:40;12.9;70.9
78522;SHT31;67819;51.972;5.678;2024-03-22T08:00:09;12.9;70.8
78522;SHT31;67819;51.972;5.678;2024-03-22T08:02:38;13.0;70.7
78522;SHT31;67819;51.972;5.678;2024-03-22T08:05:07;13.0;70.8
78522;SHT31;67819;51.972;5.678;2024-03-22T08:07:36;13.0;70.9
78522;SHT31;67819;51.972;5.678;2024-03-22T08:10:05;13.0;70.5
78522;SHT31;67819;51.972;5.678;2024-03-22T08:12:34;13.0;70.5
78522;SHT31;67819;51.972;5.678;2024-03-22T08:15:03;13.0;70.6
78522;SHT31;67819;51.972;5.678;2024-03-22T08:17:32;13.0;70.5
78522;SHT31;67819;51.972;5.678;2024-03-22T08:20:00;13.0;70.6
78522;SHT31;67819;51.972;5.678;2024-03-22T08:22:31;13.0;70.9
78522;SHT31;67819;51.972;5.678;2024-03-22T08:24:59;13.0;70.9
78522;SHT31;67819;51.972;5.678;2024-03-22T08:27:28;13.0;71.1
78522;SHT31;67819;51.972;5.678;2024-03-22T08:29:57;13.0;71.0
78522;SHT31;67819;51.972;5.678;2024-03-22T08:32:26;13.0;71.0
78522;SHT31;67819;51.972;5.678;2024-03-22T08:34:54;13.0;70.9
78522;SHT31;67819;51.972;5.678;2024-03-22T08:37:23;13.0;70.8
78522;SHT31;67819;51.972;5.678;2024-03-22T08:39:52;13.0;70.8
78522;SHT31;67819;51.972;5.678;2024-03-22T08:42:21;13.0;70.9
78522;SHT31;67819;51.972;5.678;2024-03-22T08:44:49;13.0;71.1
78522;SHT31;67819;51.972;5.678;2024-03-22T08:47:18;13.0;71.9
78522;SHT31;67819;51.972;5.678;2024-03-22T08:49:47;13.0;72.2
78522;SHT31;67819;51.972;5.678;2024-03-22T08:52:15;12.9;72.7
78522;SHT31;67819;51.972;5.678;2024-03-22T08:54:46;12.9;73.0
78522;SHT31;67819;51.972;5.678;2024-03-22T08:57:15;12.8;73.3
78522;SHT31;67819;51.972;5.678;2024-03-22T08:59:43;12.8;73.3
78522;SHT31;67819;51.972;5.678;2024-03-22T09:02:12;12.7;73.5
78522;SHT31;67819;51.972;5.678;2024-03-22T09:04:41;12.7;73.1
78522;SHT31;67819;51.972;5.678;2024-03-22T09:07:09;12.7;73.1
78522;SHT31;67819;51.972;5.678;2024-03-22T09:09:38;12.6;73.4
78522;SHT31;67819;51.972;5.678;2024-03-22T09:12:07;12.6;73.1
78522;SHT31;67819;51.972;5.678;2024-03-22T09:14:36;12.6;73.4
78522;SHT31;67819;51.972;5.678;2024-03-22T09:17:06;12.6;73.5
78522;SHT31;67819;51.972;5.678;2024-03-22T09:19:35;12.6;73.3
78522;SHT31;67819;51.972;5.678;2024-03-22T09:22:03;12.6;73.6
78522;SHT31;67819;51.972;5.678;2024-03-22T09:24:32;12.6;73.9
78522;SHT31;67819;51.972;5.678;2024-03-22T09:27:01;12.6;74.1
78522;SHT31;67819;51.972;5.678;2024-03-22T09:29:34;12.6;74.3
78522;SHT31;67819;51.972;5.678;2024-03-22T09:32:03;12.5;74.6
78522;SHT31;67819;51.972;5.678;2024-03-22T09:34:32;12.5;74.6
78522;SHT31;67819;51.972;5.678;2024-03-22T09:37:01;12.5;74.6
78522;SHT31;67819;51.972;5.678;2024-03-22T09:39:29;12.5;74.8
78522;SHT31;67819;51.972;5.678;2024-03-22T09:42:01;12.5;74.8
78522;SHT31;67819;51.972;5.678;2024-03-22T09:44:35;12.5;74.7
78522;SHT31;67819;51.972;5.678;2024-03-22T09:47:10;12.6;74.4
78522;SHT31;67819;51.972;5.678;2024-03-22T09:49:41;12.6;74.0
78522;SHT31;67819;51.972;5.678;2024-03-22T09:52:13;12.7;73.3
78522;SHT31;67819;51.972;5.678;2024-03-22T09:54:44;12.7;73.3
78522;SHT31;67819;51.972;5.678;2024-03-22T09:57:14;12.7;73.3
78522;SHT31;67819;51.972;5.678;2024-03-22T09:59:44;12.7;72.8
78522;SHT31;67819;51.972;5.678;2024-03-22T10:02:13;12.8;73.0
78522;SHT31;67819;51.972;5.678;2024-03-22T10:04:43;12.8;73.4
78522;SHT31;67819;51.972;5.678;2024-03-22T10:07:13;12.7;74.1
78522;SHT31;67819;51.972;5.678;2024-03-22T10:09:42;12.7;74.5
78522;SHT31;67819;51.972;5.678;2024-03-22T10:12:13;12.7;75.2
78522;SHT31;67819;51.972;5.678;2024-03-22T10:14:44;12.7;75.9
78522;SHT31;67819;51.972;5.678;2024-03-22T10:17:13;12.6;76.5
78522;SHT31;67819;51.972;5.678;2024-03-22T10:19:41;12.6;77.0
78522;SHT31;67819;51.972;5.678;2024-03-22T10:22:10;12.5;77.3
78522;SHT31;67819;51.972;5.678;2024-03-22T10:24:39;12.5;77.9
78522;SHT31;67819;51.972;5.678;2024-03-22T10:27:08;12.4;78.4
78522;SHT31;67819;51.972;5.678;2024-03-22T10:29:37;12.4;78.7
78522;SHT31;67819;51.972;5.678;2024-03-22T10:32:06;12.4;78.9
78522;SHT31;67819;51.972;5.678;2024-03-22T10:34:37;12.4;79.5
78522;SHT31;67819;51.972;5.678;2024-03-22T10:37:08;12.4;79.8
78522;SHT31;67819;51.972;5.678;2024-03-22T10:39:40;12.4;80.2
78522;SHT31;67819;51.972;5.678;2024-03-22T10:42:08;12.4;80.2
78522;SHT31;67819;51.972;5.678;2024-03-22T10:44:39;12.5;80.2
78522;SHT31;67819;51.972;5.678;2024-03-22T10:47:09;12.5;80.1
78522;SHT31;67819;51.972;5.678;2024-03-22T10:49:39;12.5;80.1
78522;SHT31;67819;51.972;5.678;2024-03-22T10:52:10;12.5;79.7
78522;SHT31;67819;51.972;5.678;2024-03-22T10:54:43;12.5;79.8
78522;SHT31;67819;51.972;5.678;2024-03-22T10:57:15;12.5;79.4
78522;SHT31;67819;51.972;5.678;2024-03-22T10:59:46;12.5;79.8
78522;SHT31;67819;51.972;5.678;2024-03-22T11:02:17;12.5;80.0
78522;SHT31;67819;51.972;5.678;2024-03-22T11:04:56;12.5;80.1
78522;SHT31;67819;51.972;5.678;2024-03-22T11:07:28;12.4;79.6
78522;SHT31;67819;51.972;5.678;2024-03-22T11:10:00;12.4;79.7
78522;SHT31;67819;51.972;5.678;2024-03-22T11:12:30;12.5;80.1
78522;SHT31;67819;51.972;5.678;2024-03-22T11:15:00;12.5;79.9
78522;SHT31;67819;51.972;5.678;2024-03-22T11:17:30;12.5;80.0
78522;SHT31;67819;51.972;5.678;2024-03-22T11:19:58;12.4;80.2
78522;SHT31;67819;51.972;5.678;2024-03-22T11:22:27;12.4;80.4
78522;SHT31;67819;51.972;5.678;2024-03-22T11:24:56;12.4;80.8
78522;SHT31;67819;51.972;5.678;2024-03-22T11:27:24;12.4;80.9
78522;SHT31;67819;51.972;5.678;2024-03-22T11:29:53;12.3;81.1
78522;SHT31;67819;51.972;5.678;2024-03-22T11:32:22;12.3;81.1
78522;SHT31;67819;51.972;5.678;2024-03-22T11:34:51;12.3;81.3
78522;SHT31;67819;51.972;5.678;2024-03-22T11:37:19;12.3;81.6
78522;SHT31;67819;51.972;5.678;2024-03-22T11:39:48;12.3;81.9
78522;SHT31;67819;51.972;5.678;2024-03-22T11:42:18;12.3;82.0
78522;SHT31;67819;51.972;5.678;2024-03-22T11:44:47;12.3;82.0
78522;SHT31;67819;51.972;5.678;2024-03-22T11:47:16;12.3;81.9
78522;SHT31;67819;51.972;5.678;2024-03-22T11:49:44;12.3;81.8
78522;SHT31;67819;51.972;5.678;2024-03-22T11:52:13;12.3;81.6
78522;SHT31;67819;51.972;5.678;2024-03-22T11:54:42;12.3;81.3
78522;SHT31;67819;51.972;5.678;2024-03-22T11:57:10;12.3;81.4
78522;SHT31;67819;51.972;5.678;2024-03-22T11:59:42;12.3;81.4
78522;SHT31;67819;51.972;5.678;2024-03-22T12:02:10;12.2;82.0
78522;SHT31;67819;51.972;5.678;2024-03-22T12:04:42;12.2;82.9
78522;SHT31;67819;51.972;5.678;2024-03-22T12:07:13;12.3;82.6
78522;SHT31;67819;51.972;5.678;2024-03-22T12:09:42;12.3;82.6
78522;SHT31;67819;51.972;5.678;2024-03-22T12:12:12;12.3;82.4
78522;SHT31;67819;51.972;5.678;2024-03-22T12:14:43;12.3;81.9
78522;SHT31;67819;51.972;5.678;2024-03-22T12:17:12;12.3;81.7
78522;SHT31;67819;51.972;5.678;2024-03-22T12:19:40;12.3;82.0
78522;SHT31;67819;51.972;5.678;2024-03-22T12:22:09;12.3;82.2
78522;SHT31;67819;51.972;5.678;2024-03-22T12:24:37;12.3;81.8
78522;SHT31;67819;51.972;5.678;2024-03-22T12:27:08;12.3;82.0
78522;SHT31;67819;51.972;5.678;2024-03-22T12:29:39;12.3;82.3
78522;SHT31;67819;51.972;5.678;2024-03-22T12:32:07;12.3;82.6
78522;SHT31;67819;51.972;5.678;2024-03-22T12:34:36;12.3;82.7
78522;SHT31;67819;51.972;5.678;2024-03-22T12:37:07;12.4;82.3
78522;SHT31;67819;51.972;5.678;2024-03-22T12:39:36;12.4;82.5
78522;SHT31;67819;51.972;5.678;2024-03-22T12:42:05;12.4;82.7
78522;SHT31;67819;51.972;5.678;2024-03-22T12:44:34;12.4;83.2
78522;SHT31;67819;51.972;5.678;2024-03-22T12:47:02;12.4;82.9
78522;SHT31;67819;51.972;5.678;2024-03-22T12:49:31;12.5;82.1
78522;SHT31;67819;51.972;5.678;2024-03-22T12:52:00;12.5;81.7
78522;SHT31;67819;51.972;5.678;2024-03-22T12:54:30;12.5;81.7
78522;SHT31;67819;51.972;5.678;2024-03-22T12:56:58;12.5;82.1
78522;SHT31;67819;51.972;5.678;2024-03-22T12:59:27;12.5;82.1
78522;SHT31;67819;51.972;5.678;2024-03-22T13:01:56;12.5;82.0
78522;SHT31;67819;51.972;5.678;2024-03-22T13:04:24;12.5;81.9
78522;SHT31;67819;51.972;5.678;2024-03-22T13:06:53;12.5;82.1
78522;SHT31;67819;51.972;5.678;2024-03-22T13:09:22;12.4;82.4
78522;SHT31;67819;51.972;5.678;2024-03-22T13:11:51;12.4;81.6
78522;SHT31;67819;51.972;5.678;2024-03-22T13:14:21;12.4;81.6
78522;SHT31;67819;51.972;5.678;2024-03-22T13:16:50;12.4;81.5
78522;SHT31;67819;51.972;5.678;2024-03-22T13:19:19;12.3;81.8
78522;SHT31;67819;51.972;5.678;2024-03-22T13:21:47;12.3;82.6
78522;SHT31;67819;51.972;5.678;2024-03-22T13:24:19;12.3;83.3
78522;SHT31;67819;51.972;5.678;2024-03-22T13:26:47;12.3;82.5
78522;SHT31;67819;51.972;5.678;2024-03-22T13:29:16;12.4;81.7
78522;SHT31;67819;51.972;5.678;2024-03-22T13:31:45;12.4;81.0
78522;SHT31;67819;51.972;5.678;2024-03-22T13:34:13;12.4;80.6
78522;SHT31;67819;51.972;5.678;2024-03-22T13:36:42;12.4;79.9
78522;SHT31;67819;51.972;5.678;2024-03-22T13:39:10;12.4;80.0
78522;SHT31;67819;51.972;5.678;2024-03-22T13:41:42;12.4;80.1
78522;SHT31;67819;51.972;5.678;2024-03-22T13:44:11;12.4;80.7
78522;SHT31;67819;51.972;5.678;2024-03-22T13:46:40;12.4;81.1
78522;SHT31;67819;51.972;5.678;2024-03-22T13:49:14;12.5;80.0
78522;SHT31;67819;51.972;5.678;2024-03-22T13:51:44;12.5;79.5
78522;SHT31;67819;51.972;5.678;2024-03-22T13:54:14;12.5;79.6
78522;SHT31;67819;51.972;5.678;2024-03-22T13:56:44;12.5;79.5
78522;SHT31;67819;51.972;5.678;2024-03-22T13:59:14;12.4;79.3
78522;SHT31;67819;51.972;5.678;2024-03-22T14:01:42;12.4;79.7
78522;SHT31;67819;51.972;5.678;2024-03-22T14:04:13;12.4;79.2
78522;SHT31;67819;51.972;5.678;2024-03-22T14:06:42;12.4;79.6
78522;SHT31;67819;51.972;5.678;2024-03-22T14:09:11;12.3;79.6
78522;SHT31;67819;51.972;5.678;2024-03-22T14:11:39;12.3;78.7
78522;SHT31;67819;51.972;5.678;2024-03-22T14:14:09;12.2;78.2
78522;SHT31;67819;51.972;5.678;2024-03-22T14:16:39;12.1;78.6
78522;SHT31;67819;51.972;5.678;2024-03-22T14:19:08;12.0;79.6
78522;SHT31;67819;51.972;5.678;2024-03-22T14:21:37;12.0;79.9
78522;SHT31;67819;51.972;5.678;2024-03-22T14:24:06;11.9;80.5
78522;SHT31;67819;51.972;5.678;2024-03-22T14:26:36;11.9;80.5
78522;SHT31;67819;51.972;5.678;2024-03-22T14:29:08;11.9;81.0
78522;SHT31;67819;51.972;5.678;2024-03-22T14:31:38;11.8;80.7
78522;SHT31;67819;51.972;5.678;2024-03-22T14:34:11;11.8;80.6
78522;SHT31;67819;51.972;5.678;2024-03-22T14:36:39;11.8;80.7
78522;SHT31;67819;51.972;5.678;2024-03-22T14:39:08;11.8;80.5
78522;SHT31;67819;51.972;5.678;2024-03-22T14:41:37;11.8;80.1
78522;SHT31;67819;51.972;5.678;2024-03-22T14:44:06;11.8;80.0
78522;SHT31;67819;51.972;5.678;2024-03-22T14:46:34;11.9;80.1
78522;SHT31;67819;51.972;5.678;2024-03-22T14:49:03;11.9;80.0
78522;SHT31;67819;51.972;5.678;2024-03-22T14:51:34;11.9;79.9
78522;SHT31;67819;51.972;5.678;2024-03-22T14:54:02;11.9;79.9
78522;SHT31;67819;51.972;5.678;2024-03-22T14:56:31;12.0;79.6
78522;SHT31;67819;51.972;5.678;2024-03-22T14:58:59;12.0;79.2
78522;SHT31;67819;51.972;5.678;2024-03-22T15:01:29;12.0;78.7
78522;SHT31;67819;51.972;5.678;2024-03-22T15:03:57;12.0;78.5
78522;SHT31;67819;51.972;5.678;2024-03-22T15:06:26;12.0;79.1
78522;SHT31;67819;51.972;5.678;2024-03-22T15:08:56;12.0;79.0
78522;SHT31;67819;51.972;5.678;2024-03-22T15:11:24;12.0;79.2
78522;SHT31;67819;51.972;5.678;2024-03-22T15:13:53;12.0;79.1
78522;SHT31;67819;51.972;5.678;2024-03-22T15:16:24;12.0;79.5
78522;SHT31;67819;51.972;5.678;2024-03-22T15:18:52;12.0;79.6
78522;SHT31;67819;51.972;5.678;2024-03-22T15:21:22;12.1;80.0
78522;SHT31;67819;51.972;5.678;2024-03-22T15:23:51;12.1;80.3
78522;SHT31;67819;51.972;5.678;2024-03-22T15:26:19;12.1;80.5
78522;SHT31;67819;51.972;5.678;2024-03-22T15:28:49;12.2;79.8
78522;SHT31;67819;51.972;5.678;2024-03-22T15:31:17;12.2;79.3
78522;SHT31;67819;51.972;5.678;2024-03-22T15:33:46;12.2;79.0
78522;SHT31;67819;51.972;5.678;2024-03-22T15:36:14;12.2;79.6
78522;SHT31;67819;51.972;5.678;2024-03-22T15:38:43;12.2;79.6
78522;SHT31;67819;51.972;5.678;2024-03-22T15:41:13;12.2;78.6
78522;SHT31;67819;51.972;5.678;2024-03-22T15:43:45;12.2;78.8
78522;SHT31;67819;51.972;5.678;2024-03-22T15:46:13;12.1;78.8
78522;SHT31;67819;51.972;5.678;2024-03-22T15:48:42;12.1;79.0
78522;SHT31;67819;51.972;5.678;2024-03-22T15:51:11;12.1;79.2
78522;SHT31;67819;51.972;5.678;2024-03-22T15:53:40;12.1;78.8
78522;SHT31;67819;51.972;5.678;2024-03-22T15:56:09;12.1;79.4
78522;SHT31;67819;51.972;5.678;2024-03-22T15:58:37;12.1;79.7
78522;SHT31;67819;51.972;5.678;2024-03-22T16:01:06;12.1;79.6
78522;SHT31;67819;51.972;5.678;2024-03-22T16:03:35;12.1;79.5
78522;SHT31;67819;51.972;5.678;2024-03-22T16:06:04;12.1;78.9
78522;SHT31;67819;51.972;5.678;2024-03-22T16:08:34;12.0;79.2
78522;SHT31;67819;51.972;5.678;2024-03-22T16:11:03;12.0;79.7
78522;SHT31;67819;51.972;5.678;2024-03-22T16:13:32;12.0;80.2